Nearby METAR Reports

 

LGBL - Nea Anchialos, Greece
Distance from station: SW 15km
Updated: 21/04/2015 09:20
Partly cloudy
Partly cloudy
 Wind from W
Wind: W 22 km/h
Temperature: 13°C
Dew Point: 8°C
Humidity: 72%
Barometer: 1015 hPa
Clouds: Partly cloudy
Visibility: 10 km
Cloud details: Few Clouds 1372 m
Partly cloudy 2134 m
2015/04/21 06:20 LGBL 210620Z 27012KT 9999 FEW045 SCT070 13/08 Q1015
LGSK - Skiathos Island, Greece
Distance from station: ESE 51km
Updated: 21/04/2015 08:50
Mostly cloudy
Mostly cloudy
 Wind from varies
Wind: varies 0 km/h
Temperature: 16°C
Dew Point: 3°C
Humidity: 42%
Barometer: 1014 hPa
Clouds: Mostly cloudy
Visibility: 10 km
Cloud details: Few Clouds 610 m
Partly cloudy 914 m
Mostly cloudy 2438 m
2015/04/21 05:50 LGSK 210550Z /////KT 9999 FEW020 SCT030 BKN080 16/03 Q1014
 
LGTS - Thessaloniki/Mik, Greece
Distance from station: N 135km
Updated: 21/04/2015 09:20
Mostly cloudy
Mostly cloudy
 Wind from NW
Wind: NW 33 km/h
Temperature: 15°C
Dew Point: 3°C
Humidity: 45%
Barometer: 1014 hPa
Clouds: Mostly cloudy
Visibility: 10 km
Cloud details: Few Clouds 914 m
Mostly cloudy 5182 m
2015/04/21 06:20 LGTS 210620Z 32018KT 9999 FEW030 BKN170 15/03 Q1014 NOSIG
LGSY - Skiros, Greece
Distance from station: ESE 139km
Updated: 21/04/2015 08:50
Clear
Clear
 Wind from WNW
Wind: WNW 31 km/h
Temperature: 14°C
Dew Point: 8°C
Humidity: 67%
Barometer: 1011 hPa
Summary: Clear
Visibility: greater than 10 km
2015/04/21 05:50 LGSY 210550Z 29017KT CAVOK 14/08 Q1011 RMK SCT080 BLU
 
LGKZ - Kozani (civ/Army, Greece
Distance from station: NW 144km
Updated: 21/04/2015 08:50
Few Clouds
Few Clouds
 Wind from N
Wind: N 9 km/h
Temperature: 10°C
Wind Chill: 9°C
Dew Point: -2°C
Humidity: 43%
Barometer: 1015 hPa
Clouds: Few Clouds
Visibility: 10 km
Cloud details: Few Clouds 2134 m
2015/04/21 05:50 LGKZ 210550Z 36005KT 320V020 9999 FEW070 10/M02 Q1015
LGEL - Elefsis (hel-Afb, Greece
Distance from station: SSE 147km
Updated: 21/04/2015 09:20
Few Clouds
Few Clouds
 Wind from NNW
Wind: NNW 15 km/h
Temperature: 17°C
Dew Point: 6°C
Humidity: 49%
Barometer: 1014 hPa
Clouds: Few Clouds
Visibility: 10 km
Cloud details: Few Clouds 2134 m
2015/04/21 06:20 LGEL 210620Z 34008KT 9999 FEW070 17/06 Q1014
 
LGAV - Athens/Elef-Ven, Greece
Distance from station: SSE 176km
Updated: 21/04/2015 09:20
Few Clouds
Few Clouds
 Wind from varies
Wind: varies 6 km/h
Temperature: 15°C
Dew Point: 8°C
Humidity: 63%
Barometer: 1014 hPa
Clouds: Few Clouds
Visibility: 10 km
Cloud details: Few Clouds 914 m
2015/04/21 06:20 LGAV 210620Z VRB03KT 9999 FEW030 15/08 Q1014 NOSIG
LGRX - Araxos (civ/Afb), Greece
Distance from station: SW 182km
Updated: 21/04/2015 08:50
Few Clouds
Few Clouds
 Wind from calm
Wind: Calm
Temperature: 14°C
Dew Point: 12°C
Humidity: 88%
Barometer: 1015 hPa
Clouds: Few Clouds
Visibility: 10 km
Cloud details: Few Clouds 610 m
2015/04/21 05:50 LGRX 210550Z 00000KT 9999 FEW020 14/12 Q1015
 
LGIO - Ioannina, Greece
Distance from station: WNW 187km
Updated: 21/04/2015 09:20
Clear
Clear
 Wind from varies
Wind: varies 2 km/h
Temperature: 9°C
Dew Point: 5°C
Humidity: 76%
Barometer: 1016 hPa
Summary: Clear
Visibility: greater than 10 km
2015/04/21 06:20 LGIO 210620Z VRB01KT CAVOK 09/05 Q1016
LGPZ - Preveza/Aktion, Greece
Distance from station: WSW 191km
Updated: 21/04/2015 09:20
Few Clouds
Few Clouds
 Wind from E
Wind: E 9 km/h
Temperature: 15°C
Dew Point: 8°C
Humidity: 63%
Barometer: 1016 hPa
Clouds: Few Clouds
Visibility: 10 km
Cloud details: Few Clouds 762 m
2015/04/21 06:20 LGPZ 210620Z 08005KT 9999 FEW025 15/08 Q1016
 
LGLM - Limnos Island Ar, Greece
Distance from station: ENE 209km
Updated: 21/04/2015 09:20
Partly cloudy
Partly cloudy
 Wind from NNW
Wind: NNW 11 km/h
Temperature: 15°C
Dew Point: 10°C
Humidity: 72%
Barometer: 1012 hPa
Clouds: Partly cloudy
Visibility: 10 km
Cloud details: Partly cloudy 914 m
Partly cloudy 5486 m
2015/04/21 06:20 LGLM 210620Z 34006KT 9999 SCT030 SCT180 15/10 Q1012
LGAD - Andravida (civ/A, Greece
Distance from station: SW 211km
Updated: 21/04/2015 09:20
Mostly cloudy
Mostly cloudy
 Wind from NW
Wind: NW 9 km/h
Temperature: 15°C
Dew Point: 9°C
Humidity: 68%
Barometer: 1015 hPa
Clouds: Mostly cloudy
Visibility: 10 km
Cloud details: Mostly cloudy 762 m
2015/04/21 06:20 LGAD 210620Z 31005KT 9999 BKN025 15/09 Q1015
 
LGKV - Kavala/Chrisoupo, Greece
Distance from station: NE 230km
Updated: 21/04/2015 09:20
Mostly cloudy
Mostly cloudy
 Wind from N
Wind: N 15 km/h
Temperature: 12°C
Dew Point: 4°C
Humidity: 58%
Barometer: 1013 hPa
Clouds: Mostly cloudy
Visibility: 10 km
Cloud details: Few Clouds 610 m
Mostly cloudy 2134 m
2015/04/21 06:20 LGKV 210620Z 36008KT 9999 FEW020 BKN070 12/04 Q1013
LGKF - Kefallinia, Greece
Distance from station: WSW 249km
Updated: 21/04/2015 08:50
Partly cloudy
Partly cloudy
 Wind from NW
Wind: NW 30 km/h
Temperature: 15°C
Dew Point: 9°C
Humidity: 68%
Barometer: 1015 hPa
Clouds: Partly cloudy
Visibility: 10 km
Cloud details: Partly cloudy 549 m
2015/04/21 05:50 LGKF 210550Z 32016KT 9999 SCT018 15/09 Q1015
 
LGZA - Zakinthos Airpor, Greece
Distance from station: SW 249km
Updated: 21/04/2015 08:50
Few Clouds
Few Clouds
 Wind from NW
Wind: NW 19 km/h
Temperature: 15°C
Dew Point: 9°C
Humidity: 68%
Barometer: 1015 hPa
Clouds: Few Clouds
Visibility: 10 km
Cloud details: Few Clouds 610 m
2015/04/21 05:50 LGZA 210550Z 32010KT 9999 FEW020 15/09 Q1015
LGKL - Kalamata (hel-Af, Greece
Distance from station: SSW 261km
Updated: 21/04/2015 09:20
Few Clouds
Few Clouds
 Wind from N
Wind: N 19 km/h
Temperature: 15°C
Dew Point: 8°C
Humidity: 63%
Barometer: 1014 hPa
Clouds: Few Clouds
Visibility: 10 km
Cloud details: Few Clouds 762 m
2015/04/21 06:20 LGKL 210620Z 01010KT 9999 FEW025 15/08 Q1014
 
LGKR - Ioannis Kapodist, Greece
Distance from station: W 261km
Updated: 21/04/2015 09:20
Clear
Clear
 Wind from calm
Wind: Calm
Temperature: 15°C
Dew Point: 8°C
Humidity: 63%
Barometer: 1015 hPa
Summary: Clear
Visibility: greater than 10 km
2015/04/21 06:20 LGKR 210620Z 00000KT CAVOK 15/08 Q1015 NOSIG
LGSO - Syros, Greece
Distance from station: SE 274km
Updated: 21/04/2015 08:50
Clear
Clear
 Wind from NNW
Wind: NNW 9 km/h
Temperature: 15°C
Dew Point: 9°C
Humidity: 68%
Barometer: 1013 hPa
Summary: Clear
Visibility: greater than 10 km
2015/04/21 05:50 LGSO 210550Z 33005KT CAVOK 15/09 Q1013
 
LGMK - Mikonos Island, Greece
Distance from station: SE 296km
Updated: 21/04/2015 09:20
Few Clouds
Few Clouds
 Wind from N
Wind: N 22 km/h
Temperature: 14°C
Dew Point: 9°C
Humidity: 72%
Barometer: 1013 hPa
Clouds: Few Clouds
Visibility: 10 km
Cloud details: Few Clouds 305 m
2015/04/21 06:20 LGMK 210620Z 36012KT 9999 FEW010 14/09 Q1013